sensor_id;sensor_type;location;lat;lon;timestamp;P1;durP1;ratioP1;P2;durP2;ratioP2
9675;SDS011;4876;42.656;23.292;2022-09-09T00:01:19;6.10;;;5.50;;
9675;SDS011;4876;42.656;23.292;2022-09-09T00:03:59;6.87;;;5.67;;
9675;SDS011;4876;42.656;23.292;2022-09-09T00:06:30;6.47;;;5.50;;
9675;SDS011;4876;42.656;23.292;2022-09-09T00:09:01;7.93;;;5.77;;
9675;SDS011;4876;42.656;23.292;2022-09-09T00:11:35;5.23;;;4.73;;
9675;SDS011;4876;42.656;23.292;2022-09-09T00:14:08;6.10;;;5.40;;
9675;SDS011;4876;42.656;23.292;2022-09-09T00:16:43;7.13;;;5.87;;
9675;SDS011;4876;42.656;23.292;2022-09-09T00:19:19;6.40;;;5.37;;
9675;SDS011;4876;42.656;23.292;2022-09-09T00:21:51;7.10;;;5.60;;
9675;SDS011;4876;42.656;23.292;2022-09-09T00:24:27;8.43;;;5.60;;
9675;SDS011;4876;42.656;23.292;2022-09-09T00:27:00;6.27;;;5.47;;
9675;SDS011;4876;42.656;23.292;2022-09-09T00:29:33;7.07;;;5.80;;
9675;SDS011;4876;42.656;23.292;2022-09-09T00:32:09;5.50;;;4.80;;
9675;SDS011;4876;42.656;23.292;2022-09-09T00:34:41;7.30;;;5.67;;
9675;SDS011;4876;42.656;23.292;2022-09-09T00:37:13;6.93;;;5.80;;
9675;SDS011;4876;42.656;23.292;2022-09-09T00:39:41;6.53;;;5.83;;
9675;SDS011;4876;42.656;23.292;2022-09-09T00:42:13;7.07;;;6.17;;
9675;SDS011;4876;42.656;23.292;2022-09-09T00:44:53;8.00;;;5.97;;
9675;SDS011;4876;42.656;23.292;2022-09-09T00:50:20;6.37;;;5.67;;
9675;SDS011;4876;42.656;23.292;2022-09-09T00:53:00;8.10;;;6.17;;
9675;SDS011;4876;42.656;23.292;2022-09-09T00:55:38;7.20;;;6.17;;
9675;SDS011;4876;42.656;23.292;2022-09-09T00:58:11;6.30;;;5.67;;
9675;SDS011;4876;42.656;23.292;2022-09-09T01:00:39;9.57;;;6.00;;
9675;SDS011;4876;42.656;23.292;2022-09-09T01:03:18;9.20;;;5.53;;
9675;SDS011;4876;42.656;23.292;2022-09-09T01:05:54;6.30;;;5.40;;
9675;SDS011;4876;42.656;23.292;2022-09-09T01:08:40;6.10;;;5.47;;
9675;SDS011;4876;42.656;23.292;2022-09-09T01:11:20;7.27;;;5.90;;
9675;SDS011;4876;42.656;23.292;2022-09-09T01:13:52;7.43;;;5.40;;
9675;SDS011;4876;42.656;23.292;2022-09-09T01:16:24;8.57;;;5.50;;
9675;SDS011;4876;42.656;23.292;2022-09-09T01:18:51;7.17;;;6.23;;
9675;SDS011;4876;42.656;23.292;2022-09-09T01:21:25;9.07;;;5.97;;
9675;SDS011;4876;42.656;23.292;2022-09-09T01:24:13;6.50;;;5.90;;
9675;SDS011;4876;42.656;23.292;2022-09-09T01:26:50;6.83;;;5.27;;
9675;SDS011;4876;42.656;23.292;2022-09-09T01:29:19;7.77;;;6.23;;
9675;SDS011;4876;42.656;23.292;2022-09-09T01:31:52;6.53;;;5.73;;
9675;SDS011;4876;42.656;23.292;2022-09-09T01:34:21;7.90;;;5.77;;
9675;SDS011;4876;42.656;23.292;2022-09-09T01:36:51;7.73;;;5.70;;
9675;SDS011;4876;42.656;23.292;2022-09-09T01:39:23;11.10;;;5.70;;
9675;SDS011;4876;42.656;23.292;2022-09-09T01:41:53;6.73;;;5.87;;
9675;SDS011;4876;42.656;23.292;2022-09-09T01:44:22;6.50;;;5.07;;
9675;SDS011;4876;42.656;23.292;2022-09-09T01:46:49;7.80;;;5.97;;
9675;SDS011;4876;42.656;23.292;2022-09-09T01:49:16;6.37;;;5.77;;
9675;SDS011;4876;42.656;23.292;2022-09-09T01:51:43;14.70;;;6.10;;
9675;SDS011;4876;42.656;23.292;2022-09-09T01:54:14;6.97;;;5.57;;
9675;SDS011;4876;42.656;23.292;2022-09-09T01:56:43;9.23;;;5.63;;
9675;SDS011;4876;42.656;23.292;2022-09-09T01:59:25;7.13;;;6.40;;
9675;SDS011;4876;42.656;23.292;2022-09-09T02:02:08;6.53;;;5.80;;
9675;SDS011;4876;42.656;23.292;2022-09-09T02:04:39;5.90;;;5.30;;
9675;SDS011;4876;42.656;23.292;2022-09-09T02:07:10;7.00;;;5.43;;
9675;SDS011;4876;42.656;23.292;2022-09-09T02:09:47;6.57;;;5.57;;
9675;SDS011;4876;42.656;23.292;2022-09-09T02:12:23;9.33;;;5.73;;
9675;SDS011;4876;42.656;23.292;2022-09-09T02:14:55;8.47;;;5.77;;
9675;SDS011;4876;42.656;23.292;2022-09-09T02:17:26;7.63;;;5.97;;
9675;SDS011;4876;42.656;23.292;2022-09-09T02:19:56;9.13;;;5.97;;
9675;SDS011;4876;42.656;23.292;2022-09-09T02:22:28;6.87;;;5.60;;
9675;SDS011;4876;42.656;23.292;2022-09-09T02:25:00;8.60;;;5.87;;
9675;SDS011;4876;42.656;23.292;2022-09-09T02:27:27;6.90;;;5.77;;
9675;SDS011;4876;42.656;23.292;2022-09-09T02:29:55;8.23;;;6.20;;
9675;SDS011;4876;42.656;23.292;2022-09-09T02:32:27;7.20;;;5.83;;
9675;SDS011;4876;42.656;23.292;2022-09-09T02:34:57;6.43;;;5.37;;
9675;SDS011;4876;42.656;23.292;2022-09-09T02:37:27;7.47;;;6.33;;
9675;SDS011;4876;42.656;23.292;2022-09-09T02:39:58;8.70;;;6.60;;
9675;SDS011;4876;42.656;23.292;2022-09-09T02:42:25;7.13;;;5.97;;
9675;SDS011;4876;42.656;23.292;2022-09-09T02:44:51;7.13;;;6.43;;
9675;SDS011;4876;42.656;23.292;2022-09-09T02:47:24;11.93;;;6.67;;
9675;SDS011;4876;42.656;23.292;2022-09-09T02:50:02;9.13;;;7.57;;
9675;SDS011;4876;42.656;23.292;2022-09-09T02:52:38;8.27;;;6.97;;
9675;SDS011;4876;42.656;23.292;2022-09-09T02:55:16;9.70;;;6.77;;
9675;SDS011;4876;42.656;23.292;2022-09-09T02:57:47;8.13;;;6.77;;
9675;SDS011;4876;42.656;23.292;2022-09-09T03:00:16;8.43;;;6.73;;
9675;SDS011;4876;42.656;23.292;2022-09-09T03:02:50;8.27;;;6.60;;
9675;SDS011;4876;42.656;23.292;2022-09-09T03:05:18;7.40;;;6.60;;
9675;SDS011;4876;42.656;23.292;2022-09-09T03:07:45;7.87;;;6.43;;
9675;SDS011;4876;42.656;23.292;2022-09-09T03:10:12;6.60;;;5.90;;
9675;SDS011;4876;42.656;23.292;2022-09-09T03:12:39;8.27;;;6.53;;
9675;SDS011;4876;42.656;23.292;2022-09-09T03:15:06;7.60;;;6.83;;
9675;SDS011;4876;42.656;23.292;2022-09-09T03:17:33;8.03;;;6.97;;
9675;SDS011;4876;42.656;23.292;2022-09-09T03:20:02;7.33;;;6.37;;
9675;SDS011;4876;42.656;23.292;2022-09-09T03:22:29;8.60;;;6.20;;
9675;SDS011;4876;42.656;23.292;2022-09-09T03:24:56;7.50;;;6.47;;
9675;SDS011;4876;42.656;23.292;2022-09-09T03:27:22;8.13;;;7.10;;
9675;SDS011;4876;42.656;23.292;2022-09-09T03:29:49;13.17;;;6.93;;
9675;SDS011;4876;42.656;23.292;2022-09-09T03:32:16;7.97;;;6.27;;
9675;SDS011;4876;42.656;23.292;2022-09-09T03:34:43;6.67;;;5.77;;
9675;SDS011;4876;42.656;23.292;2022-09-09T03:37:13;8.27;;;7.20;;
9675;SDS011;4876;42.656;23.292;2022-09-09T03:39:40;7.40;;;6.60;;
9675;SDS011;4876;42.656;23.292;2022-09-09T03:42:07;7.57;;;6.57;;
9675;SDS011;4876;42.656;23.292;2022-09-09T03:44:34;8.67;;;6.77;;
9675;SDS011;4876;42.656;23.292;2022-09-09T03:47:01;8.50;;;7.20;;
9675;SDS011;4876;42.656;23.292;2022-09-09T03:49:28;10.10;;;8.07;;
9675;SDS011;4876;42.656;23.292;2022-09-09T03:51:55;12.73;;;10.40;;
9675;SDS011;4876;42.656;23.292;2022-09-09T03:54:25;11.90;;;10.07;;
9675;SDS011;4876;42.656;23.292;2022-09-09T03:56:52;15.00;;;9.57;;
9675;SDS011;4876;42.656;23.292;2022-09-09T03:59:19;9.73;;;8.57;;
9675;SDS011;4876;42.656;23.292;2022-09-09T04:01:46;9.10;;;8.20;;
9675;SDS011;4876;42.656;23.292;2022-09-09T04:04:13;9.43;;;8.10;;
9675;SDS011;4876;42.656;23.292;2022-09-09T04:06:40;10.80;;;8.70;;
9675;SDS011;4876;42.656;23.292;2022-09-09T04:09:06;11.37;;;8.43;;
9675;SDS011;4876;42.656;23.292;2022-09-09T04:11:35;9.73;;;7.87;;
9675;SDS011;4876;42.656;23.292;2022-09-09T04:14:02;10.07;;;7.03;;
9675;SDS011;4876;42.656;23.292;2022-09-09T04:16:31;10.77;;;7.43;;
9675;SDS011;4876;42.656;23.292;2022-09-09T04:18:58;9.77;;;7.83;;
9675;SDS011;4876;42.656;23.292;2022-09-09T04:21:26;10.00;;;7.50;;
9675;SDS011;4876;42.656;23.292;2022-09-09T04:23:53;9.83;;;7.47;;
9675;SDS011;4876;42.656;23.292;2022-09-09T04:26:19;16.23;;;7.83;;
9675;SDS011;4876;42.656;23.292;2022-09-09T04:28:47;10.63;;;7.50;;
9675;SDS011;4876;42.656;23.292;2022-09-09T04:31:15;8.90;;;7.23;;
9675;SDS011;4876;42.656;23.292;2022-09-09T04:33:45;8.77;;;6.97;;
9675;SDS011;4876;42.656;23.292;2022-09-09T04:36:12;9.13;;;6.67;;
9675;SDS011;4876;42.656;23.292;2022-09-09T04:38:39;9.93;;;7.23;;
9675;SDS011;4876;42.656;23.292;2022-09-09T04:41:06;9.23;;;6.87;;
9675;SDS011;4876;42.656;23.292;2022-09-09T04:43:36;15.60;;;7.63;;
9675;SDS011;4876;42.656;23.292;2022-09-09T04:46:04;12.60;;;7.27;;
9675;SDS011;4876;42.656;23.292;2022-09-09T04:48:33;11.83;;;6.80;;
9675;SDS011;4876;42.656;23.292;2022-09-09T04:51:00;10.00;;;6.07;;
9675;SDS011;4876;42.656;23.292;2022-09-09T04:53:29;11.73;;;7.67;;
9675;SDS011;4876;42.656;23.292;2022-09-09T04:56:01;10.70;;;7.00;;
9675;SDS011;4876;42.656;23.292;2022-09-09T04:58:28;24.03;;;9.07;;
9675;SDS011;4876;42.656;23.292;2022-09-09T05:00:55;9.53;;;6.90;;
9675;SDS011;4876;42.656;23.292;2022-09-09T05:03:29;13.33;;;7.57;;
9675;SDS011;4876;42.656;23.292;2022-09-09T05:06:01;11.47;;;7.20;;
9675;SDS011;4876;42.656;23.292;2022-09-09T05:08:29;12.93;;;8.17;;
9675;SDS011;4876;42.656;23.292;2022-09-09T05:10:56;7.57;;;6.70;;
9675;SDS011;4876;42.656;23.292;2022-09-09T05:13:24;17.37;;;8.93;;
9675;SDS011;4876;42.656;23.292;2022-09-09T05:15:51;11.07;;;8.40;;
9675;SDS011;4876;42.656;23.292;2022-09-09T05:18:19;12.20;;;10.87;;
9675;SDS011;4876;42.656;23.292;2022-09-09T05:20:48;10.70;;;9.60;;
9675;SDS011;4876;42.656;23.292;2022-09-09T05:23:16;11.43;;;8.83;;
9675;SDS011;4876;42.656;23.292;2022-09-09T05:25:43;11.40;;;9.17;;
9675;SDS011;4876;42.656;23.292;2022-09-09T05:28:11;12.37;;;9.00;;
9675;SDS011;4876;42.656;23.292;2022-09-09T05:30:38;21.03;;;8.43;;
9675;SDS011;4876;42.656;23.292;2022-09-09T05:33:05;11.40;;;9.43;;
9675;SDS011;4876;42.656;23.292;2022-09-09T05:35:34;11.63;;;9.50;;
9675;SDS011;4876;42.656;23.292;2022-09-09T05:38:02;12.33;;;9.93;;
9675;SDS011;4876;42.656;23.292;2022-09-09T05:40:29;13.20;;;10.37;;
9675;SDS011;4876;42.656;23.292;2022-09-09T05:42:59;14.57;;;9.63;;
9675;SDS011;4876;42.656;23.292;2022-09-09T05:45:27;12.17;;;9.67;;
9675;SDS011;4876;42.656;23.292;2022-09-09T05:47:59;14.27;;;10.40;;
9675;SDS011;4876;42.656;23.292;2022-09-09T05:50:27;9.70;;;8.70;;
9675;SDS011;4876;42.656;23.292;2022-09-09T05:52:54;8.43;;;7.53;;
9675;SDS011;4876;42.656;23.292;2022-09-09T05:55:22;10.63;;;8.13;;
9675;SDS011;4876;42.656;23.292;2022-09-09T05:57:50;10.57;;;7.63;;
9675;SDS011;4876;42.656;23.292;2022-09-09T06:00:17;9.03;;;7.67;;
9675;SDS011;4876;42.656;23.292;2022-09-09T06:02:49;8.10;;;7.27;;
9675;SDS011;4876;42.656;23.292;2022-09-09T06:05:17;9.97;;;7.30;;
9675;SDS011;4876;42.656;23.292;2022-09-09T06:07:44;9.50;;;7.33;;
9675;SDS011;4876;42.656;23.292;2022-09-09T06:10:11;11.40;;;8.30;;
9675;SDS011;4876;42.656;23.292;2022-09-09T06:12:40;7.27;;;6.27;;
9675;SDS011;4876;42.656;23.292;2022-09-09T06:15:07;8.37;;;7.00;;
9675;SDS011;4876;42.656;23.292;2022-09-09T06:17:34;9.23;;;6.77;;
9675;SDS011;4876;42.656;23.292;2022-09-09T06:20:02;10.23;;;6.57;;
9675;SDS011;4876;42.656;23.292;2022-09-09T06:22:29;8.77;;;7.60;;
9675;SDS011;4876;42.656;23.292;2022-09-09T06:24:56;8.77;;;6.80;;
9675;SDS011;4876;42.656;23.292;2022-09-09T06:27:23;9.03;;;7.83;;
9675;SDS011;4876;42.656;23.292;2022-09-09T06:29:51;7.90;;;6.67;;
9675;SDS011;4876;42.656;23.292;2022-09-09T06:32:18;7.80;;;7.00;;
9675;SDS011;4876;42.656;23.292;2022-09-09T06:34:44;9.20;;;5.87;;
9675;SDS011;4876;42.656;23.292;2022-09-09T06:37:12;8.57;;;6.43;;
9675;SDS011;4876;42.656;23.292;2022-09-09T06:39:38;11.20;;;6.67;;
9675;SDS011;4876;42.656;23.292;2022-09-09T06:42:05;8.70;;;6.97;;
9675;SDS011;4876;42.656;23.292;2022-09-09T06:44:33;9.40;;;6.80;;
9675;SDS011;4876;42.656;23.292;2022-09-09T06:47:02;8.17;;;7.03;;
9675;SDS011;4876;42.656;23.292;2022-09-09T06:49:30;8.37;;;6.40;;
9675;SDS011;4876;42.656;23.292;2022-09-09T06:51:57;8.90;;;6.20;;
9675;SDS011;4876;42.656;23.292;2022-09-09T06:54:24;6.87;;;6.17;;
9675;SDS011;4876;42.656;23.292;2022-09-09T06:56:50;10.70;;;7.10;;
9675;SDS011;4876;42.656;23.292;2022-09-09T06:59:17;7.73;;;6.93;;
9675;SDS011;4876;42.656;23.292;2022-09-09T07:01:44;8.03;;;7.17;;
9675;SDS011;4876;42.656;23.292;2022-09-09T07:04:13;11.40;;;7.33;;
9675;SDS011;4876;42.656;23.292;2022-09-09T07:06:40;10.40;;;6.90;;
9675;SDS011;4876;42.656;23.292;2022-09-09T07:09:09;9.33;;;7.40;;
9675;SDS011;4876;42.656;23.292;2022-09-09T07:11:38;10.10;;;6.83;;
9675;SDS011;4876;42.656;23.292;2022-09-09T07:14:06;9.73;;;7.03;;
9675;SDS011;4876;42.656;23.292;2022-09-09T07:16:33;8.00;;;6.73;;
9675;SDS011;4876;42.656;23.292;2022-09-09T07:19:02;8.27;;;6.33;;
9675;SDS011;4876;42.656;23.292;2022-09-09T07:21:31;7.60;;;6.27;;
9675;SDS011;4876;42.656;23.292;2022-09-09T07:23:59;10.80;;;6.37;;
9675;SDS011;4876;42.656;23.292;2022-09-09T07:26:27;10.67;;;6.27;;
9675;SDS011;4876;42.656;23.292;2022-09-09T07:28:54;7.07;;;6.37;;
9675;SDS011;4876;42.656;23.292;2022-09-09T07:31:22;6.50;;;5.77;;
9675;SDS011;4876;42.656;23.292;2022-09-09T07:33:51;8.73;;;6.27;;
9675;SDS011;4876;42.656;23.292;2022-09-09T07:36:18;7.83;;;6.10;;
9675;SDS011;4876;42.656;23.292;2022-09-09T07:38:48;6.67;;;5.90;;
9675;SDS011;4876;42.656;23.292;2022-09-09T07:41:18;6.40;;;5.63;;
9675;SDS011;4876;42.656;23.292;2022-09-09T07:43:46;9.73;;;6.07;;
9675;SDS011;4876;42.656;23.292;2022-09-09T07:46:15;5.73;;;5.13;;
9675;SDS011;4876;42.656;23.292;2022-09-09T07:48:44;8.27;;;6.00;;
9675;SDS011;4876;42.656;23.292;2022-09-09T07:51:12;13.63;;;6.30;;
9675;SDS011;4876;42.656;23.292;2022-09-09T07:53:42;8.23;;;6.37;;
9675;SDS011;4876;42.656;23.292;2022-09-09T07:56:11;12.20;;;6.70;;
9675;SDS011;4876;42.656;23.292;2022-09-09T07:58:40;7.90;;;6.57;;
9675;SDS011;4876;42.656;23.292;2022-09-09T08:01:07;7.20;;;5.90;;
9675;SDS011;4876;42.656;23.292;2022-09-09T08:03:36;6.67;;;5.70;;
9675;SDS011;4876;42.656;23.292;2022-09-09T08:06:04;8.77;;;6.53;;
9675;SDS011;4876;42.656;23.292;2022-09-09T08:08:33;8.50;;;6.20;;
9675;SDS011;4876;42.656;23.292;2022-09-09T08:11:01;8.98;;;6.32;;
9675;SDS011;4876;42.656;23.292;2022-09-09T08:13:31;13.07;;;5.82;;
9675;SDS011;4876;42.656;23.292;2022-09-09T08:16:03;7.35;;;5.80;;
9675;SDS011;4876;42.656;23.292;2022-09-09T08:18:31;6.60;;;5.32;;
9675;SDS011;4876;42.656;23.292;2022-09-09T08:21:04;5.93;;;5.38;;
9675;SDS011;4876;42.656;23.292;2022-09-09T08:23:32;5.32;;;4.80;;
9675;SDS011;4876;42.656;23.292;2022-09-09T08:26:03;8.00;;;6.32;;
9675;SDS011;4876;42.656;23.292;2022-09-09T08:28:32;6.55;;;5.43;;
9675;SDS011;4876;42.656;23.292;2022-09-09T08:31:04;9.60;;;5.85;;
9675;SDS011;4876;42.656;23.292;2022-09-09T08:33:33;6.70;;;5.38;;
9675;SDS011;4876;42.656;23.292;2022-09-09T08:36:01;5.35;;;4.85;;
9675;SDS011;4876;42.656;23.292;2022-09-09T08:38:28;7.38;;;5.20;;
9675;SDS011;4876;42.656;23.292;2022-09-09T08:40:56;5.45;;;4.95;;
9675;SDS011;4876;42.656;23.292;2022-09-09T08:43:34;6.70;;;5.68;;
9675;SDS011;4876;42.656;23.292;2022-09-09T08:46:02;6.18;;;5.10;;
9675;SDS011;4876;42.656;23.292;2022-09-09T08:48:44;6.75;;;5.15;;
9675;SDS011;4876;42.656;23.292;2022-09-09T08:51:21;8.88;;;5.53;;
9675;SDS011;4876;42.656;23.292;2022-09-09T08:53:52;5.70;;;4.78;;
9675;SDS011;4876;42.656;23.292;2022-09-09T08:56:23;8.95;;;4.25;;
9675;SDS011;4876;42.656;23.292;2022-09-09T08:58:53;6.22;;;5.18;;
9675;SDS011;4876;42.656;23.292;2022-09-09T09:01:35;5.90;;;5.15;;
9675;SDS011;4876;42.656;23.292;2022-09-09T09:04:13;5.35;;;4.85;;
9675;SDS011;4876;42.656;23.292;2022-09-09T09:06:50;7.40;;;5.72;;
9675;SDS011;4876;42.656;23.292;2022-09-09T09:09:31;5.22;;;4.72;;
9675;SDS011;4876;42.656;23.292;2022-09-09T09:12:12;4.88;;;4.28;;
9675;SDS011;4876;42.656;23.292;2022-09-09T09:14:44;6.65;;;5.50;;
9675;SDS011;4876;42.656;23.292;2022-09-09T09:17:14;5.35;;;4.57;;
9675;SDS011;4876;42.656;23.292;2022-09-09T09:19:44;4.82;;;4.43;;
9675;SDS011;4876;42.656;23.292;2022-09-09T09:22:14;6.32;;;4.90;;
9675;SDS011;4876;42.656;23.292;2022-09-09T09:24:49;6.55;;;4.97;;
9675;SDS011;4876;42.656;23.292;2022-09-09T09:27:21;5.45;;;4.45;;
9675;SDS011;4876;42.656;23.292;2022-09-09T09:29:57;6.03;;;4.70;;
9675;SDS011;4876;42.656;23.292;2022-09-09T09:32:25;8.57;;;5.45;;
9675;SDS011;4876;42.656;23.292;2022-09-09T09:34:57;7.95;;;4.70;;
9675;SDS011;4876;42.656;23.292;2022-09-09T09:37:27;7.75;;;4.55;;
9675;SDS011;4876;42.656;23.292;2022-09-09T09:40:07;5.00;;;4.20;;
9675;SDS011;4876;42.656;23.292;2022-09-09T09:42:35;9.45;;;4.80;;
9675;SDS011;4876;42.656;23.292;2022-09-09T09:45:16;9.30;;;5.25;;
9675;SDS011;4876;42.656;23.292;2022-09-09T09:47:57;6.43;;;4.35;;
9675;SDS011;4876;42.656;23.292;2022-09-09T09:50:24;5.78;;;4.97;;
9675;SDS011;4876;42.656;23.292;2022-09-09T09:52:55;5.80;;;4.35;;
9675;SDS011;4876;42.656;23.292;2022-09-09T09:55:23;5.20;;;4.47;;
9675;SDS011;4876;42.656;23.292;2022-09-09T09:57:51;8.30;;;4.63;;
9675;SDS011;4876;42.656;23.292;2022-09-09T10:00:20;5.57;;;4.30;;
9675;SDS011;4876;42.656;23.292;2022-09-09T10:02:51;5.22;;;4.30;;
9675;SDS011;4876;42.656;23.292;2022-09-09T10:05:20;5.45;;;4.47;;
9675;SDS011;4876;42.656;23.292;2022-09-09T10:08:00;6.10;;;5.00;;
9675;SDS011;4876;42.656;23.292;2022-09-09T10:10:42;5.85;;;5.25;;
9675;SDS011;4876;42.656;23.292;2022-09-09T10:13:20;7.20;;;4.65;;
9675;SDS011;4876;42.656;23.292;2022-09-09T10:16:01;5.45;;;4.68;;
9675;SDS011;4876;42.656;23.292;2022-09-09T10:18:42;5.05;;;4.43;;
9675;SDS011;4876;42.656;23.292;2022-09-09T10:21:22;5.53;;;4.55;;
9675;SDS011;4876;42.656;23.292;2022-09-09T10:24:02;6.60;;;4.38;;
9675;SDS011;4876;42.656;23.292;2022-09-09T10:26:40;4.82;;;4.28;;
9675;SDS011;4876;42.656;23.292;2022-09-09T10:29:19;4.68;;;4.10;;
9675;SDS011;4876;42.656;23.292;2022-09-09T10:32:02;6.82;;;5.20;;
9675;SDS011;4876;42.656;23.292;2022-09-09T10:34:45;5.93;;;4.15;;
9675;SDS011;4876;42.656;23.292;2022-09-09T10:37:22;5.07;;;4.45;;
9675;SDS011;4876;42.656;23.292;2022-09-09T10:40:00;7.40;;;5.22;;
9675;SDS011;4876;42.656;23.292;2022-09-09T10:42:33;7.75;;;4.13;;
9675;SDS011;4876;42.656;23.292;2022-09-09T10:45:06;8.20;;;4.43;;
9675;SDS011;4876;42.656;23.292;2022-09-09T10:47:50;7.68;;;4.10;;
9675;SDS011;4876;42.656;23.292;2022-09-09T10:50:33;6.57;;;5.10;;
9675;SDS011;4876;42.656;23.292;2022-09-09T10:53:12;5.93;;;5.18;;
9675;SDS011;4876;42.656;23.292;2022-09-09T10:55:48;5.20;;;4.68;;
9675;SDS011;4876;42.656;23.292;2022-09-09T10:58:20;5.47;;;4.95;;
9675;SDS011;4876;42.656;23.292;2022-09-09T11:00:53;6.63;;;4.40;;
9675;SDS011;4876;42.656;23.292;2022-09-09T11:03:25;11.68;;;5.72;;
9675;SDS011;4876;42.656;23.292;2022-09-09T11:05:56;6.70;;;5.57;;
9675;SDS011;4876;42.656;23.292;2022-09-09T11:08:28;9.25;;;5.53;;
9675;SDS011;4876;42.656;23.292;2022-09-09T11:10:58;6.82;;;6.10;;
9675;SDS011;4876;42.656;23.292;2022-09-09T11:13:29;6.75;;;6.00;;
9675;SDS011;4876;42.656;23.292;2022-09-09T11:16:04;6.00;;;5.40;;
9675;SDS011;4876;42.656;23.292;2022-09-09T11:18:39;7.07;;;6.00;;
9675;SDS011;4876;42.656;23.292;2022-09-09T11:21:11;6.55;;;5.80;;
9675;SDS011;4876;42.656;23.292;2022-09-09T11:23:44;9.98;;;5.55;;
9675;SDS011;4876;42.656;23.292;2022-09-09T11:26:15;7.15;;;6.45;;
9675;SDS011;4876;42.656;23.292;2022-09-09T11:28:49;6.57;;;5.43;;
9675;SDS011;4876;42.656;23.292;2022-09-09T11:31:32;6.50;;;5.70;;
9675;SDS011;4876;42.656;23.292;2022-09-09T11:34:26;7.95;;;5.97;;
9675;SDS011;4876;42.656;23.292;2022-09-09T11:37:05;8.27;;;5.45;;
9675;SDS011;4876;42.656;23.292;2022-09-09T11:39:56;6.35;;;5.63;;
9675;SDS011;4876;42.656;23.292;2022-09-09T11:42:35;7.70;;;5.65;;
9675;SDS011;4876;42.656;23.292;2022-09-09T11:45:09;7.50;;;5.72;;
9675;SDS011;4876;42.656;23.292;2022-09-09T11:47:38;7.45;;;5.18;;
9675;SDS011;4876;42.656;23.292;2022-09-09T11:50:10;9.90;;;6.55;;
9675;SDS011;4876;42.656;23.292;2022-09-09T11:53:03;9.35;;;5.32;;
9675;SDS011;4876;42.656;23.292;2022-09-09T11:55:35;7.70;;;5.55;;
9675;SDS011;4876;42.656;23.292;2022-09-09T11:58:03;7.90;;;5.75;;
9675;SDS011;4876;42.656;23.292;2022-09-09T12:00:32;11.90;;;7.50;;
9675;SDS011;4876;42.656;23.292;2022-09-09T12:03:03;7.30;;;5.80;;
9675;SDS011;4876;42.656;23.292;2022-09-09T12:05:45;7.45;;;5.93;;
9675;SDS011;4876;42.656;23.292;2022-09-09T12:08:16;8.00;;;5.97;;
9675;SDS011;4876;42.656;23.292;2022-09-09T12:10:53;14.48;;;6.13;;
9675;SDS011;4876;42.656;23.292;2022-09-09T12:13:22;9.77;;;6.35;;
9675;SDS011;4876;42.656;23.292;2022-09-09T12:15:51;7.65;;;6.68;;
9675;SDS011;4876;42.656;23.292;2022-09-09T12:18:21;7.30;;;5.38;;
9675;SDS011;4876;42.656;23.292;2022-09-09T12:20:57;14.27;;;5.90;;
9675;SDS011;4876;42.656;23.292;2022-09-09T12:23:35;7.03;;;5.93;;
9675;SDS011;4876;42.656;23.292;2022-09-09T12:26:16;7.70;;;5.53;;
9675;SDS011;4876;42.656;23.292;2022-09-09T12:29:00;11.82;;;6.43;;
9675;SDS011;4876;42.656;23.292;2022-09-09T12:31:34;9.05;;;6.20;;
9675;SDS011;4876;42.656;23.292;2022-09-09T12:34:09;8.10;;;6.40;;
9675;SDS011;4876;42.656;23.292;2022-09-09T12:36:41;11.93;;;6.50;;
9675;SDS011;4876;42.656;23.292;2022-09-09T12:39:11;7.68;;;5.88;;
9675;SDS011;4876;42.656;23.292;2022-09-09T12:41:50;9.18;;;5.88;;
9675;SDS011;4876;42.656;23.292;2022-09-09T12:44:23;6.97;;;5.70;;
9675;SDS011;4876;42.656;23.292;2022-09-09T12:46:50;7.88;;;6.15;;
9675;SDS011;4876;42.656;23.292;2022-09-09T12:49:24;8.80;;;6.10;;
9675;SDS011;4876;42.656;23.292;2022-09-09T12:51:57;7.15;;;6.00;;
9675;SDS011;4876;42.656;23.292;2022-09-09T12:54:25;10.82;;;5.90;;
9675;SDS011;4876;42.656;23.292;2022-09-09T12:56:53;7.03;;;6.15;;
9675;SDS011;4876;42.656;23.292;2022-09-09T12:59:24;8.02;;;5.70;;
9675;SDS011;4876;42.656;23.292;2022-09-09T13:01:55;6.45;;;5.07;;
9675;SDS011;4876;42.656;23.292;2022-09-09T13:04:22;6.50;;;5.40;;
9675;SDS011;4876;42.656;23.292;2022-09-09T13:06:49;10.55;;;6.22;;
9675;SDS011;4876;42.656;23.292;2022-09-09T13:09:18;8.70;;;6.15;;
9675;SDS011;4876;42.656;23.292;2022-09-09T13:11:46;6.72;;;5.45;;
9675;SDS011;4876;42.656;23.292;2022-09-09T13:14:17;8.40;;;5.60;;
9675;SDS011;4876;42.656;23.292;2022-09-09T13:16:55;9.93;;;5.70;;
9675;SDS011;4876;42.656;23.292;2022-09-09T13:19:23;13.27;;;5.68;;
9675;SDS011;4876;42.656;23.292;2022-09-09T13:21:52;8.30;;;5.68;;
9675;SDS011;4876;42.656;23.292;2022-09-09T13:24:24;8.52;;;6.43;;
9675;SDS011;4876;42.656;23.292;2022-09-09T13:26:55;9.52;;;6.10;;
9675;SDS011;4876;42.656;23.292;2022-09-09T13:29:24;5.93;;;5.40;;
9675;SDS011;4876;42.656;23.292;2022-09-09T13:31:53;7.63;;;5.68;;
9675;SDS011;4876;42.656;23.292;2022-09-09T13:34:26;8.38;;;5.65;;
9675;SDS011;4876;42.656;23.292;2022-09-09T13:36:55;13.10;;;5.65;;
9675;SDS011;4876;42.656;23.292;2022-09-09T13:39:28;28.02;;;22.30;;
9675;SDS011;4876;42.656;23.292;2022-09-09T13:41:55;31.05;;;23.15;;
9675;SDS011;4876;42.656;23.292;2022-09-09T13:44:23;21.38;;;16.30;;
9675;SDS011;4876;42.656;23.292;2022-09-09T13:47:02;9.25;;;7.28;;
9675;SDS011;4876;42.656;23.292;2022-09-09T13:49:30;8.63;;;5.93;;
9675;SDS011;4876;42.656;23.292;2022-09-09T13:52:05;9.40;;;6.18;;
9675;SDS011;4876;42.656;23.292;2022-09-09T13:54:37;7.18;;;5.65;;
9675;SDS011;4876;42.656;23.292;2022-09-09T13:57:04;6.95;;;4.60;;
9675;SDS011;4876;42.656;23.292;2022-09-09T13:59:31;8.20;;;5.43;;
9675;SDS011;4876;42.656;23.292;2022-09-09T14:01:58;7.35;;;5.30;;
9675;SDS011;4876;42.656;23.292;2022-09-09T14:04:26;5.18;;;4.53;;
9675;SDS011;4876;42.656;23.292;2022-09-09T14:06:54;6.57;;;5.47;;
9675;SDS011;4876;42.656;23.292;2022-09-09T14:09:21;6.45;;;5.75;;
9675;SDS011;4876;42.656;23.292;2022-09-09T14:11:49;6.35;;;5.15;;
9675;SDS011;4876;42.656;23.292;2022-09-09T14:14:16;8.82;;;5.60;;
9675;SDS011;4876;42.656;23.292;2022-09-09T14:16:43;10.35;;;4.97;;
9675;SDS011;4876;42.656;23.292;2022-09-09T14:19:10;7.63;;;6.20;;
9675;SDS011;4876;42.656;23.292;2022-09-09T14:21:37;7.93;;;5.53;;
9675;SDS011;4876;42.656;23.292;2022-09-09T14:24:04;11.05;;;5.78;;
9675;SDS011;4876;42.656;23.292;2022-09-09T14:26:31;6.93;;;5.35;;
9675;SDS011;4876;42.656;23.292;2022-09-09T14:28:59;6.82;;;5.70;;
9675;SDS011;4876;42.656;23.292;2022-09-09T14:31:26;10.55;;;5.75;;
9675;SDS011;4876;42.656;23.292;2022-09-09T14:33:53;7.50;;;5.88;;
9675;SDS011;4876;42.656;23.292;2022-09-09T14:36:20;6.53;;;5.45;;
9675;SDS011;4876;42.656;23.292;2022-09-09T14:38:47;4.88;;;4.28;;
9675;SDS011;4876;42.656;23.292;2022-09-09T14:41:15;6.18;;;4.80;;
9675;SDS011;4876;42.656;23.292;2022-09-09T14:43:43;19.30;;;6.07;;
9675;SDS011;4876;42.656;23.292;2022-09-09T14:46:13;7.47;;;5.20;;
9675;SDS011;4876;42.656;23.292;2022-09-09T14:48:41;5.88;;;5.28;;
9675;SDS011;4876;42.656;23.292;2022-09-09T14:51:10;8.73;;;5.32;;
9675;SDS011;4876;42.656;23.292;2022-09-09T14:53:39;7.70;;;5.43;;
9675;SDS011;4876;42.656;23.292;2022-09-09T14:56:06;5.93;;;5.05;;
9675;SDS011;4876;42.656;23.292;2022-09-09T14:58:35;15.00;;;5.97;;
9675;SDS011;4876;42.656;23.292;2022-09-09T15:01:03;7.38;;;5.30;;
9675;SDS011;4876;42.656;23.292;2022-09-09T15:03:32;5.80;;;5.18;;
9675;SDS011;4876;42.656;23.292;2022-09-09T15:06:04;6.70;;;5.13;;
9675;SDS011;4876;42.656;23.292;2022-09-09T15:08:31;8.30;;;5.55;;
9675;SDS011;4876;42.656;23.292;2022-09-09T15:10:58;9.88;;;6.13;;
9675;SDS011;4876;42.656;23.292;2022-09-09T15:13:26;7.05;;;5.68;;
9675;SDS011;4876;42.656;23.292;2022-09-09T15:15:53;9.52;;;6.60;;
9675;SDS011;4876;42.656;23.292;2022-09-09T15:18:20;9.88;;;6.00;;
9675;SDS011;4876;42.656;23.292;2022-09-09T15:20:48;6.63;;;5.05;;
9675;SDS011;4876;42.656;23.292;2022-09-09T15:23:15;9.05;;;5.10;;